Time;durP1;ratioP1;P1;durP2;ratioP2;P2;SDS_P1;SDS_P2;PMS_P1;PMS_P2;Temp;Humidity;BMP_temperature;BMP_pressure;BME280_temperature;BME280_humidity;BME280_pressure;Samples;Min_cycle;Max_cycle;Signal;HPM_P1;HPM_P2
2023/12/13 00:01:34;;;;;;;30.53;17.00;;;;;;;9.26;72.71;94430.75;5048138;28;20202;-46
2023/12/13 00:04:02;;;;;;;26.13;17.20;;;;;;;9.13;72.85;94414.94;5049860;28;20187;-45
2023/12/13 00:06:29;;;;;;;33.80;19.70;;;;;;;9.25;72.89;94418.97;5049486;28;20191;-46
2023/12/13 00:08:59;;;;;;;27.17;17.93;;;;;;;9.27;72.84;94411.94;5049380;28;20195;-46
2023/12/13 00:11:26;;;;;;;31.73;19.87;;;;;;;9.27;72.85;94414.50;5049826;28;20202;-46
2023/12/13 00:13:58;;;;;;;27.90;17.93;;;;;;;9.27;72.95;94413.69;5049280;28;20187;-46
2023/12/13 00:16:25;;;;;;;31.63;18.00;;;;;;;9.27;72.70;94416.25;5049703;28;20217;-46
2023/12/13 00:18:54;;;;;;;27.53;16.90;;;;;;;9.26;72.70;94419.75;5049198;28;20718;-46
2023/12/13 00:21:21;;;;;;;27.07;18.07;;;;;;;9.25;72.81;94420.72;5049074;28;20198;-46
2023/12/13 00:23:49;;;;;;;27.10;18.00;;;;;;;9.24;72.91;94416.53;5043423;28;20557;-46
2023/12/13 00:26:18;;;;;;;27.47;17.97;;;;;;;9.23;72.91;94413.16;5029482;28;20196;-46
2023/12/13 00:28:45;;;;;;;33.10;19.07;;;;;;;9.20;72.94;94410.91;5035696;28;20198;-47
2023/12/13 00:31:15;;;;;;;29.50;18.93;;;;;;;9.23;72.92;94414.91;5049650;28;20194;-47
2023/12/13 00:33:43;;;;;;;28.57;16.93;;;;;;;9.22;72.93;94409.00;5049704;28;20195;-45
2023/12/13 00:36:10;;;;;;;25.00;17.47;;;;;;;9.22;73.13;94413.31;5049301;28;20226;-46
2023/12/13 00:38:43;;;;;;;29.33;17.63;;;;;;;9.20;73.04;94400.72;5049072;28;20226;-46
2023/12/13 00:41:12;;;;;;;29.77;17.87;;;;;;;9.19;72.95;94399.06;5032107;28;20772;-46
2023/12/13 00:43:40;;;;;;;30.50;17.17;;;;;;;9.16;73.01;94394.25;5036664;28;20244;-46
2023/12/13 00:46:19;;;;;;;31.70;18.90;;;;;;;9.19;72.94;94401.63;5049771;28;20195;-45
2023/12/13 00:48:47;;;;;;;27.83;17.03;;;;;;;9.20;73.09;94400.72;5049066;28;20190;-45
2023/12/13 00:51:19;;;;;;;28.00;17.57;;;;;;;9.11;73.04;94381.13;5049593;28;20248;-46
2023/12/13 00:53:48;;;;;;;26.93;17.83;;;;;;;9.19;72.95;94388.88;5043796;28;20556;-46
2023/12/13 00:56:23;;;;;;;29.70;19.30;;;;;;;9.09;73.24;94370.22;5029661;28;20206;-47
2023/12/13 00:58:50;;;;;;;36.40;20.53;;;;;;;9.21;72.93;94384.44;5027601;28;20664;-46
2023/12/13 01:01:23;;;;;;;32.77;18.47;;;;;;;9.17;73.13;94359.34;5029046;28;20250;-47
2023/12/13 01:03:52;;;;;;;31.93;19.30;;;;;;;8.15;72.73;94193.38;5008562;28;20701;-46
2023/12/13 01:06:20;;;;;;;34.53;20.10;;;;;;;9.24;72.89;94357.84;5009505;28;20192;-46
2023/12/13 01:08:50;;;;;;;32.10;19.20;;;;;;;9.22;72.89;94358.00;5010508;28;20188;-46
2023/12/13 01:11:17;;;;;;;30.87;19.20;;;;;;;9.16;72.99;94340.69;5010165;28;20658;-47
2023/12/13 01:13:45;;;;;;;30.13;18.23;;;;;;;9.26;72.96;94348.31;5025321;28;20199;-46
2023/12/13 01:16:12;;;;;;;30.40;19.57;;;;;;;8.99;72.69;94296.28;5033724;28;20588;-47
2023/12/13 01:18:42;;;;;;;33.67;20.03;;;;;;;9.29;72.96;94332.75;5032173;28;20219;-46
2023/12/13 01:21:09;;;;;;;33.40;19.07;;;;;;;9.31;72.96;94323.19;5030933;28;20259;-46
2023/12/13 01:23:37;;;;;;;33.60;19.80;;;;;;;9.32;72.88;94322.22;5036711;28;20270;-47
2023/12/13 01:26:04;;;;;;;31.70;19.47;;;;;;;9.33;72.95;94326.41;5051432;28;20210;-47
2023/12/13 01:28:33;;;;;;;31.43;19.73;;;;;;;9.33;72.83;94325.63;5034012;28;20191;-47
2023/12/13 01:31:07;;;;;;;30.23;19.87;;;;;;;9.30;72.90;94317.28;5030566;28;20661;-46
2023/12/13 01:33:38;;;;;;;32.67;19.47;;;;;;;9.34;72.96;94329.78;5033478;28;20668;-46
2023/12/13 01:36:08;;;;;;;32.37;21.03;;;;;;;9.36;72.94;94335.53;5034693;28;20210;-47
2023/12/13 01:38:49;;;;;;;36.87;20.50;;;;;;;9.13;72.88;94307.78;5034043;28;20198;-46
2023/12/13 01:41:21;;;;;;;33.90;20.83;;;;;;;9.21;73.01;94330.06;5047498;28;20256;-45
2023/12/13 01:43:49;;;;;;;36.57;21.53;;;;;;;9.36;72.98;94343.97;5051188;28;20609;-46
2023/12/13 01:46:22;;;;;;;34.40;20.87;;;;;;;9.36;72.98;94345.72;5051124;28;20297;-46
2023/12/13 01:48:55;;;;;;;30.50;18.90;;;;;;;9.23;73.18;94312.88;5039931;28;20226;-46
2023/12/13 01:51:52;;;;;;;32.20;20.17;;;;;;;9.27;72.79;94297.13;5035964;28;20200;-47
2023/12/13 01:54:23;;;;;;;34.30;21.17;;;;;;;9.39;73.07;94315.63;5039241;28;20532;-46
2023/12/13 01:56:56;;;;;;;32.50;20.57;;;;;;;9.31;72.95;94300.22;5030926;28;20210;-46
2023/12/13 01:59:23;;;;;;;37.60;21.43;;;;;;;9.27;72.83;94288.69;5033049;28;20202;-47
2023/12/13 02:01:52;;;;;;;36.40;22.40;;;;;;;9.38;73.05;94303.84;5032204;28;20196;-47
2023/12/13 02:04:20;;;;;;;36.40;23.90;;;;;;;9.41;73.04;94297.63;5031828;28;20191;-45
2023/12/13 02:06:48;;;;;;;33.23;22.20;;;;;;;9.44;73.01;94299.91;5038555;28;20202;-45
2023/12/13 02:09:16;;;;;;;33.97;21.10;;;;;;;9.40;72.81;94290.91;5051273;28;20188;-46
2023/12/13 02:11:45;;;;;;;41.43;23.27;;;;;;;9.43;73.03;94283.78;5051293;28;20202;-46
2023/12/13 02:14:14;;;;;;;35.13;21.97;;;;;;;9.43;72.86;94268.47;5051605;28;20628;-46
2023/12/13 02:16:45;;;;;;;38.30;22.47;;;;;;;9.41;73.03;94257.63;5052092;28;20191;-47
2023/12/13 02:19:13;;;;;;;41.53;24.23;;;;;;;9.45;72.94;94258.13;5051686;28;20643;-46
2023/12/13 02:21:40;;;;;;;33.23;22.00;;;;;;;9.45;72.86;94253.81;5052074;28;20280;-46
2023/12/13 02:24:10;;;;;;;40.77;23.17;;;;;;;9.27;73.09;94230.00;5051835;28;20194;-46
2023/12/13 02:26:41;;;;;;;39.17;23.40;;;;;;;9.47;72.92;94269.81;5052762;28;20218;-46
2023/12/13 02:29:09;;;;;;;36.53;23.43;;;;;;;9.38;73.06;94263.00;5052785;28;20191;-49
2023/12/13 02:31:38;;;;;;;35.23;23.00;;;;;;;9.47;73.03;94269.81;5052328;28;20202;-45
2023/12/13 02:34:06;;;;;;;40.93;24.23;;;;;;;9.53;72.94;94278.63;5052087;28;20253;-45
2023/12/13 02:36:36;;;;;;;41.63;23.97;;;;;;;9.37;72.98;94243.53;5051801;28;20191;-46
2023/12/13 02:39:08;;;;;;;39.00;24.17;;;;;;;9.57;72.91;94248.53;5051196;28;20187;-46
2023/12/13 02:41:35;;;;;;;40.30;24.03;;;;;;;9.58;72.96;94232.25;5049675;28;20332;-47
2023/12/13 02:44:02;;;;;;;40.93;25.67;;;;;;;9.59;72.81;94221.13;5050168;28;20191;-46
2023/12/13 02:46:29;;;;;;;41.67;24.67;;;;;;;9.59;72.96;94234.69;5035075;28;20180;-46
2023/12/13 02:49:00;;;;;;;36.03;22.90;;;;;;;9.60;72.90;94243.16;5032516;28;20206;-45
2023/12/13 02:51:27;;;;;;;35.00;22.77;;;;;;;9.57;72.95;94253.66;5030984;28;20192;-46
2023/12/13 02:53:56;;;;;;;40.10;24.30;;;;;;;9.38;72.99;94211.16;5044130;28;20214;-46
2023/12/13 02:56:26;;;;;;;44.00;25.80;;;;;;;9.56;73.08;94247.75;5051557;28;20278;-47
2023/12/13 02:58:53;;;;;;;36.30;24.13;;;;;;;9.60;73.00;94256.72;5051143;28;20706;-47
2023/12/13 03:01:20;;;;;;;41.03;24.57;;;;;;;9.61;72.98;94254.97;5052350;28;20234;-47
2023/12/13 03:06:30;;;;;;;42.50;24.70;;;;;;;9.60;72.85;94249.06;5047797;28;20199;-46
2023/12/13 03:08:57;;;;;;;42.40;24.53;;;;;;;9.62;72.83;94244.59;5049122;28;20198;-45
2023/12/13 03:11:42;;;;;;;40.33;26.80;;;;;;;9.61;73.04;94237.91;5050918;28;20190;-47
2023/12/13 03:14:12;;;;;;;38.30;24.73;;;;;;;9.53;72.81;94225.84;5050866;28;20213;-46
2023/12/13 03:16:38;;;;;;;41.07;25.00;;;;;;;9.49;72.94;94221.16;5049468;28;20195;-46
2023/12/13 03:19:12;;;;;;;45.80;26.90;;;;;;;9.62;72.80;94259.13;5050334;28;20230;-47
2023/12/13 03:21:40;;;;;;;43.00;26.43;;;;;;;9.62;73.08;94264.22;5049759;28;20317;-46
2023/12/13 03:24:09;;;;;;;43.20;26.33;;;;;;;9.62;73.02;94261.66;5049566;28;20183;-45
2023/12/13 03:26:39;;;;;;;37.03;25.57;;;;;;;9.61;73.06;94265.19;5051012;28;20207;-46
2023/12/13 03:29:08;;;;;;;49.17;27.43;;;;;;;9.61;72.88;94276.19;5053653;28;20191;-46
2023/12/13 03:31:37;;;;;;;43.40;26.37;;;;;;;9.61;72.98;94280.50;5052842;28;20290;-46
2023/12/13 03:34:04;;;;;;;40.37;27.40;;;;;;;9.60;73.22;94266.13;5051342;28;20509;-47
2023/12/13 03:36:33;;;;;;;42.93;28.13;;;;;;;9.59;73.01;94256.88;5022476;28;20199;-46
2023/12/13 03:39:00;;;;;;;44.47;28.17;;;;;;;9.58;72.97;94273.09;5038161;28;20195;-46
2023/12/13 03:41:27;;;;;;;40.27;26.60;;;;;;;9.48;73.08;94256.09;5030764;28;20707;-46
2023/12/13 03:43:58;;;;;;;43.03;27.93;;;;;;;9.38;73.04;94241.78;5050034;28;20232;-46
2023/12/13 03:46:28;;;;;;;42.33;27.47;;;;;;;9.50;73.10;94268.75;5048518;28;20216;-47
2023/12/13 03:48:55;;;;;;;41.17;26.30;;;;;;;9.53;73.04;94276.88;5049068;28;20190;-47
2023/12/13 03:51:25;;;;;;;43.10;27.60;;;;;;;9.54;73.10;94272.59;5050589;28;20566;-47
2023/12/13 03:53:52;;;;;;;44.87;27.47;;;;;;;9.52;73.17;94270.19;5041622;28;20225;-46
2023/12/13 03:56:21;;;;;;;44.33;28.43;;;;;;;9.55;73.05;94256.34;5049689;28;20203;-46
2023/12/13 03:58:49;;;;;;;42.60;27.27;;;;;;;9.55;73.02;94261.44;5048806;28;20221;-46
2023/12/13 04:01:27;;;;;;;48.93;28.67;;;;;;;9.57;72.93;94251.09;5048400;28;20219;-46
2023/12/13 04:03:55;;;;;;;46.07;28.67;;;;;;;9.58;72.87;94255.25;5049658;28;20233;-45
2023/12/13 04:06:23;;;;;;;42.80;28.50;;;;;;;9.45;72.95;94233.41;5049411;28;20578;-46
2023/12/13 04:08:50;;;;;;;44.97;28.33;;;;;;;9.59;72.95;94244.09;5032074;28;20658;-46
2023/12/13 04:11:16;;;;;;;38.40;27.13;;;;;;;9.61;73.09;94239.66;5029868;28;20196;-46
2023/12/13 04:13:43;;;;;;;50.33;30.17;;;;;;;9.61;72.72;94245.56;5029899;28;20219;-46
2023/12/13 04:16:10;;;;;;;45.07;28.17;;;;;;;9.63;72.91;94246.22;5029356;28;20680;-45
2023/12/13 04:18:39;;;;;;;49.27;30.33;;;;;;;9.51;72.91;94203.97;5029341;28;20227;-47
2023/12/13 04:21:06;;;;;;;51.10;29.87;;;;;;;9.61;72.83;94225.13;5029293;28;20203;-45
2023/12/13 04:23:34;;;;;;;40.93;28.13;;;;;;;9.66;72.92;94229.81;5042254;28;20297;-46
2023/12/13 04:26:02;;;;;;;44.00;28.37;;;;;;;9.64;72.87;94212.09;5049115;28;20202;-47
2023/12/13 04:28:30;;;;;;;47.47;29.60;;;;;;;9.68;72.93;94210.06;5049081;28;20195;-46
2023/12/13 04:30:57;;;;;;;49.87;30.67;;;;;;;9.69;72.92;94209.09;5049192;28;20281;-47
2023/12/13 04:33:24;;;;;;;48.73;30.03;;;;;;;9.68;73.04;94203.19;5049008;28;20198;-46
2023/12/13 04:35:58;;;;;;;46.87;29.30;;;;;;;9.70;72.92;94211.50;5040259;28;20737;-46
2023/12/13 04:38:30;;;;;;;48.70;29.43;;;;;;;9.69;72.88;94209.91;5028811;28;20195;-46
2023/12/13 04:41:01;;;;;;;48.00;30.13;;;;;;;9.72;72.92;94212.19;5029003;28;20272;-46
2023/12/13 04:43:31;;;;;;;46.53;29.73;;;;;;;9.71;72.98;94194.44;5029042;28;20199;-47
2023/12/13 04:45:58;;;;;;;46.50;29.27;;;;;;;9.71;73.08;94191.88;5029808;28;20298;-46
2023/12/13 04:48:26;;;;;;;45.60;29.13;;;;;;;9.70;72.99;94192.81;5029345;28;20207;-46
2023/12/13 04:50:54;;;;;;;43.03;28.47;;;;;;;9.69;73.03;94194.59;5029122;28;20188;-46
2023/12/13 04:53:24;;;;;;;45.83;28.60;;;;;;;9.68;72.99;94202.41;5042832;28;20202;-46
2023/12/13 04:55:51;;;;;;;44.00;28.93;;;;;;;9.67;73.01;94201.59;5049102;28;20215;-45
2023/12/13 04:58:17;;;;;;;48.43;29.30;;;;;;;9.66;72.94;94205.06;5048745;28;20621;-46
2023/12/13 05:00:45;;;;;;;44.13;28.30;;;;;;;9.64;73.42;94195.97;5048500;28;20621;-47
2023/12/13 05:03:12;;;;;;;39.63;26.83;;;;;;;9.63;73.21;94190.06;5045179;28;20202;-45
2023/12/13 05:05:39;;;;;;;42.87;28.27;;;;;;;9.60;73.21;94195.44;5031246;28;20187;-47
2023/12/13 05:08:12;;;;;;;45.97;28.73;;;;;;;9.55;73.37;94188.22;5049311;28;20252;-47
2023/12/13 05:10:40;;;;;;;42.10;28.23;;;;;;;9.55;73.22;94177.22;5053462;28;20191;-47
2023/12/13 05:13:07;;;;;;;45.53;29.33;;;;;;;9.53;73.21;94169.69;5041572;28;20186;-46
2023/12/13 05:15:34;;;;;;;46.27;28.53;;;;;;;9.54;73.27;94176.41;5051143;28;20274;-45
2023/12/13 05:18:01;;;;;;;45.60;28.97;;;;;;;9.52;73.15;94183.41;5034158;28;20195;-47
2023/12/13 05:20:28;;;;;;;41.53;27.00;;;;;;;9.46;73.35;94153.38;5051531;28;20784;-46
2023/12/13 05:22:56;;;;;;;47.77;28.10;;;;;;;9.49;73.62;94190.53;5051276;28;20674;-46
2023/12/13 05:25:25;;;;;;;41.53;27.27;;;;;;;9.48;73.38;94191.50;5049710;28;20180;-46
2023/12/13 05:27:54;;;;;;;44.13;29.07;;;;;;;9.47;73.47;94179.69;5052572;28;20683;-46
2023/12/13 05:30:23;;;;;;;39.03;26.60;;;;;;;9.39;73.44;94172.72;5050534;28;20187;-45
2023/12/13 05:32:51;;;;;;;45.70;28.63;;;;;;;9.42;73.41;94185.22;5031438;28;20640;-45
2023/12/13 05:35:19;;;;;;;46.23;28.77;;;;;;;9.42;73.41;94190.31;5032466;28;20188;-46
2023/12/13 05:37:47;;;;;;;26.57;17.23;;;;;;;9.70;100.00;94174.97;5033800;28;20288;-46
2023/12/13 05:40:18;;;;;;;25.03;18.27;;;;;;;10.53;100.00;94163.53;5043508;28;20805;-45
2023/12/13 05:42:47;;;;;;;29.37;18.47;;;;;;;11.42;100.00;94185.38;5051497;28;20218;-46
2023/12/13 05:45:16;;;;;;;35.90;21.20;;;;;;;11.90;100.00;94160.03;5053085;28;20671;-48
2023/12/13 05:47:43;;;;;;;28.53;18.67;;;;;;;12.74;100.00;94197.38;5053647;28;20197;-47
2023/12/13 05:50:11;;;;;;;34.40;21.40;;;;;;;13.21;95.89;94202.56;5056403;28;20218;-47
2023/12/13 05:52:39;;;;;;;31.30;20.63;;;;;;;13.65;91.81;94202.06;5058936;28;20183;-45
2023/12/13 05:55:07;;;;;;;31.10;19.17;;;;;;;14.04;88.58;94198.63;5056532;28;20262;-46
2023/12/13 05:57:34;;;;;;;28.27;17.83;;;;;;;14.43;86.97;94195.13;5054113;28;20198;-47
2023/12/13 06:00:06;;;;;;;35.23;19.83;;;;;;;14.88;85.60;94183.16;5052268;28;20199;-46
2023/12/13 06:02:36;;;;;;;32.27;18.03;;;;;;;15.24;84.16;94173.78;5040835;28;21182;-46
2023/12/13 06:05:04;;;;;;;26.17;16.67;;;;;;;15.54;82.79;94159.06;5027083;28;20241;-47
2023/12/13 06:07:36;;;;;;;25.97;17.73;;;;;;;15.83;80.05;94161.78;5023281;28;20675;-47
2023/12/13 06:10:07;;;;;;;23.30;16.03;;;;;;;16.05;78.93;94166.75;5030499;28;20203;-47
2023/12/13 06:12:35;;;;;;;25.00;18.97;;;;;;;16.17;78.55;94177.38;5032114;28;20253;-48
2023/12/13 06:15:08;;;;;;;25.00;17.50;;;;;;;16.08;77.52;94182.84;5030718;28;20196;-47
2023/12/13 06:17:35;;;;;;;31.10;18.97;;;;;;;15.85;76.62;94177.88;5030406;28;20202;-47
2023/12/13 06:20:03;;;;;;;28.40;19.43;;;;;;;15.54;75.98;94182.25;5025050;28;20231;-46
2023/12/13 06:22:30;;;;;;;27.80;18.97;;;;;;;15.29;75.29;94175.81;5029336;28;20253;-47
2023/12/13 06:24:57;;;;;;;30.23;19.37;;;;;;;15.01;75.00;94173.84;5030806;28;20199;-48
2023/12/13 06:27:24;;;;;;;32.00;20.17;;;;;;;14.74;74.59;94162.38;5034501;28;20199;-50
2023/12/13 06:29:51;;;;;;;31.53;21.30;;;;;;;14.45;74.62;94145.09;5042098;28;20192;-47
2023/12/13 06:32:19;;;;;;;32.13;20.10;;;;;;;14.24;74.46;94134.66;5032335;28;20184;-47
2023/12/13 06:34:46;;;;;;;35.30;21.63;;;;;;;14.06;74.50;94155.53;5032027;28;20207;-47
2023/12/13 06:37:15;;;;;;;29.30;19.30;;;;;;;13.86;74.47;94157.78;5051995;28;20656;-47
2023/12/13 06:39:42;;;;;;;33.37;21.93;;;;;;;13.68;74.22;94162.38;5050435;28;20267;-47
2023/12/13 06:42:09;;;;;;;35.57;22.47;;;;;;;13.50;74.48;94153.16;5051165;28;20226;-47
2023/12/13 06:44:40;;;;;;;30.60;20.33;;;;;;;13.36;74.37;94151.31;5051716;28;20179;-46
2023/12/13 06:47:12;;;;;;;35.07;20.57;;;;;;;13.12;74.29;94123.13;5049164;28;20183;-47
2023/12/13 06:49:40;;;;;;;31.27;22.07;;;;;;;13.12;74.40;94141.09;5050563;28;20195;-46
2023/12/13 06:52:07;;;;;;;32.13;21.13;;;;;;;13.03;74.40;94135.19;5049341;28;20199;-48
2023/12/13 06:54:34;;;;;;;35.87;20.77;;;;;;;12.96;74.40;94131.72;5046327;28;20192;-47
2023/12/13 06:57:01;;;;;;;31.47;21.97;;;;;;;12.85;74.26;94116.66;5025849;28;20279;-47
2023/12/13 06:59:29;;;;;;;32.03;22.20;;;;;;;12.81;74.08;94132.38;5023384;28;20191;-45
2023/12/13 07:01:56;;;;;;;33.67;23.00;;;;;;;12.74;74.13;94139.16;5031788;28;20306;-46
2023/12/13 07:04:29;;;;;;;32.83;22.97;;;;;;;12.72;73.96;94145.41;5032206;28;20197;-48
2023/12/13 07:06:58;;;;;;;35.60;22.90;;;;;;;12.54;73.93;94130.22;5038322;28;20845;-46
2023/12/13 07:09:26;;;;;;;30.20;21.77;;;;;;;12.63;73.81;94146.38;5032067;28;20195;-46
2023/12/13 07:11:58;;;;;;;35.37;22.93;;;;;;;12.64;73.85;94140.28;5031795;28;20188;-48
2023/12/13 07:14:26;;;;;;;38.97;22.83;;;;;;;12.62;73.59;94143.03;5032115;28;20235;-48
2023/12/13 07:16:56;;;;;;;31.90;21.30;;;;;;;12.63;73.58;94147.19;5042801;28;20183;-46
2023/12/13 07:19:24;;;;;;;32.17;21.60;;;;;;;12.64;73.53;94146.22;5048847;28;20306;-46
2023/12/13 07:21:54;;;;;;;30.57;21.20;;;;;;;12.67;73.36;94137.41;5036106;28;20212;-48
2023/12/13 07:24:27;;;;;;;29.57;20.97;;;;;;;12.70;73.30;94122.50;5035364;28;20176;-47
2023/12/13 07:26:54;;;;;;;32.40;21.77;;;;;;;12.74;72.91;94123.75;5051373;28;20202;-46
2023/12/13 07:29:20;;;;;;;26.37;20.03;;;;;;;12.79;73.01;94128.41;5051002;28;20202;-47
2023/12/13 07:31:50;;;;;;;27.50;20.43;;;;;;;12.84;72.55;94130.47;5050826;28;20195;-47
2023/12/13 07:34:18;;;;;;;28.77;20.53;;;;;;;12.86;72.57;94128.53;5050434;28;20179;-47
2023/12/13 07:36:48;;;;;;;27.43;19.77;;;;;;;12.92;72.29;94125.31;5051964;28;20269;-47
2023/12/13 07:39:19;;;;;;;29.17;19.27;;;;;;;12.95;72.36;94123.22;5051614;28;20663;-48
2023/12/13 07:41:49;;;;;;;28.30;19.63;;;;;;;12.98;71.96;94133.13;5029883;28;20239;-48
2023/12/13 07:44:19;;;;;;;27.03;18.00;;;;;;;12.97;72.02;94110.22;5034000;28;20198;-48
2023/12/13 07:46:46;;;;;;;29.23;19.30;;;;;;;13.05;71.85;94110.19;5028465;28;20206;-45
2023/12/13 07:49:14;;;;;;;27.33;18.53;;;;;;;13.12;71.47;94100.03;5036522;28;20188;-47
2023/12/13 07:51:42;;;;;;;27.27;19.10;;;;;;;13.18;71.42;94122.47;5031785;28;20207;-47
2023/12/13 07:54:12;;;;;;;25.03;17.97;;;;;;;13.25;71.29;94136.25;5028690;28;20196;-47
2023/12/13 07:56:41;;;;;;;25.70;18.10;;;;;;;13.31;71.07;94122.78;5029487;28;20850;-48
2023/12/13 07:59:21;;;;;;;26.60;17.20;;;;;;;13.37;70.90;94146.97;5029458;28;20286;-45
2023/12/13 08:01:48;;;;;;;26.47;18.67;;;;;;;13.40;70.63;94144.06;5029613;28;20262;-45
2023/12/13 08:04:15;;;;;;;31.00;17.20;;;;;;;13.46;70.62;94136.47;5030062;28;20194;-47
2023/12/13 08:06:42;;;;;;;24.17;17.67;;;;;;;13.52;70.31;94137.59;5029379;28;20195;-47
2023/12/13 08:09:10;;;;;;;24.97;17.83;;;;;;;13.55;69.97;94144.94;5029711;28;20200;-47
2023/12/13 08:11:38;;;;;;;26.77;17.33;;;;;;;13.53;70.06;94139.97;5028371;28;20681;-47
2023/12/13 08:14:07;;;;;;;24.33;17.97;;;;;;;13.06;69.93;94052.75;5029177;28;20249;-46
2023/12/13 08:16:37;;;;;;;28.00;18.23;;;;;;;13.61;69.90;94125.50;5027969;28;20199;-49
2023/12/13 08:19:10;;;;;;;24.87;16.70;;;;;;;13.62;69.87;94117.63;5029236;28;20222;-47
2023/12/13 08:21:41;;;;;;;24.00;16.50;;;;;;;13.65;69.76;94106.22;5031221;28;20656;-46
2023/12/13 08:24:10;;;;;;;22.20;15.20;;;;;;;13.60;69.70;94101.59;5029777;28;20560;-48
2023/12/13 08:26:38;;;;;;;24.23;16.43;;;;;;;13.63;69.66;94103.00;5028542;28;20599;-46
2023/12/13 08:29:08;;;;;;;23.13;15.00;;;;;;;13.60;69.54;94117.00;5029719;28;20184;-51
2023/12/13 08:31:50;;;;;;;24.57;15.17;;;;;;;13.63;69.42;94124.34;5028610;28;20215;-48
2023/12/13 08:34:24;;;;;;;23.67;16.10;;;;;;;13.59;69.30;94107.66;5039028;28;20195;-46
2023/12/13 08:36:53;;;;;;;21.87;16.23;;;;;;;13.61;69.30;94122.94;5043045;28;20250;-48
2023/12/13 08:39:23;;;;;;;23.23;15.80;;;;;;;13.60;69.44;94111.84;5039159;28;20215;-46
2023/12/13 08:41:58;;;;;;;24.10;17.10;;;;;;;13.58;69.11;94123.25;5029782;28;20200;-49
2023/12/13 08:44:26;;;;;;;21.83;16.23;;;;;;;13.61;69.10;94133.22;5030250;28;20191;-47
2023/12/13 08:46:56;;;;;;;24.77;16.63;;;;;;;13.60;69.12;94134.16;5012823;28;20191;-46
2023/12/13 08:49:40;;;;;;;22.53;16.40;;;;;;;13.62;69.18;94134.81;4995259;28;20188;-46
2023/12/13 08:52:16;;;;;;;24.27;16.80;;;;;;;13.61;69.08;94134.00;5029495;28;20195;-47
2023/12/13 08:54:43;;;;;;;26.03;17.23;;;;;;;13.60;69.00;94126.44;5038026;28;20191;-47
2023/12/13 08:57:12;;;;;;;23.07;16.93;;;;;;;13.41;68.96;94107.94;5036492;28;20345;-63
2023/12/13 08:59:42;;;;;;;28.53;18.00;;;;;;;13.61;68.80;94135.78;5022269;28;20200;-46
2023/12/13 09:02:10;;;;;;;24.23;17.90;;;;;;;13.61;68.81;94138.34;5014240;28;20232;-46
2023/12/13 09:04:47;;;;;;;32.83;18.43;;;;;;;13.60;68.61;94142.69;5035148;28;20180;-52
2023/12/13 09:07:18;;;;;;;22.77;16.93;;;;;;;13.59;68.59;94117.16;5043922;28;20225;-46
2023/12/13 09:09:46;;;;;;;25.27;17.43;;;;;;;13.66;68.60;94110.38;5031196;28;20644;-48
2023/12/13 09:12:16;;;;;;;27.33;18.97;;;;;;;13.69;68.46;94107.47;5028661;28;20223;-46
2023/12/13 09:14:46;;;;;;;29.07;18.53;;;;;;;13.68;68.41;94095.56;5029319;28;20750;-46
2023/12/13 09:17:22;;;;;;;29.20;18.90;;;;;;;13.79;67.97;94092.59;5037702;28;20318;-47
2023/12/13 09:19:51;;;;;;;26.03;17.40;;;;;;;13.89;67.92;94082.88;5049095;28;20584;-48
2023/12/13 09:22:19;;;;;;;31.07;19.47;;;;;;;13.90;67.80;94058.78;5048177;28;20217;-46
2023/12/13 09:24:47;;;;;;;26.03;18.67;;;;;;;14.11;67.44;94078.69;5048402;28;20192;-47
2023/12/13 09:27:15;;;;;;;28.87;18.53;;;;;;;14.28;67.17;94061.34;5011601;28;20188;-46
2023/12/13 09:29:44;;;;;;;32.63;18.70;;;;;;;14.46;66.74;94074.66;5027933;28;20207;-47
2023/12/13 09:32:12;;;;;;;30.70;19.07;;;;;;;14.59;66.38;94058.63;5031604;28;20673;-47
2023/12/13 09:34:45;;;;;;;27.33;19.43;;;;;;;14.82;66.00;94071.41;5029012;28;20704;-49
2023/12/13 09:37:28;;;;;;;27.03;19.20;;;;;;;14.94;65.97;94070.00;5044475;28;20641;-47
2023/12/13 09:39:55;;;;;;;25.40;17.50;;;;;;;15.11;65.49;94087.78;5039949;28;20188;-47
2023/12/13 09:42:27;;;;;;;25.77;17.93;;;;;;;15.19;65.50;94091.06;5027078;28;20265;-47
2023/12/13 09:44:58;;;;;;;28.07;19.07;;;;;;;15.28;65.10;94073.72;5029347;28;20195;-47
2023/12/13 09:50:34;;;;;;;23.27;17.13;;;;;;;15.45;64.59;94048.53;5029477;28;20742;-48
2023/12/13 09:53:04;;;;;;;23.60;17.77;;;;;;;15.56;64.45;94051.44;5027899;28;20294;-46
2023/12/13 09:55:35;;;;;;;22.13;15.83;;;;;;;15.77;64.09;94049.88;5040358;28;20206;-48
2023/12/13 09:58:03;;;;;;;24.10;16.10;;;;;;;15.82;63.92;94037.22;5053254;28;20218;-52
2023/12/13 10:00:33;;;;;;;24.70;16.80;;;;;;;15.97;63.64;94037.91;5053327;28;20207;-46
2023/12/13 10:03:05;;;;;;;26.93;15.53;;;;;;;16.04;63.48;94025.09;5052308;28;20268;-48
2023/12/13 10:05:39;;;;;;;21.27;15.37;;;;;;;16.14;63.27;94027.34;5054635;28;20883;-47
2023/12/13 10:08:07;;;;;;;25.97;15.80;;;;;;;16.20;63.15;94019.66;5053212;28;20228;-47
2023/12/13 10:10:39;;;;;;;22.70;14.17;;;;;;;16.20;63.05;94003.38;5051942;28;20199;-47
2023/12/13 10:13:09;;;;;;;20.63;14.37;;;;;;;16.12;62.81;93991.41;5053188;28;20207;-47
2023/12/13 10:15:39;;;;;;;21.97;13.90;;;;;;;16.22;62.99;94001.41;5052938;28;20194;-47
2023/12/13 10:18:06;;;;;;;20.77;13.97;;;;;;;16.23;62.92;93995.25;5050560;28;20187;-47
2023/12/13 10:20:37;;;;;;;27.53;14.07;;;;;;;16.21;62.91;93979.16;5050836;28;20683;-46
2023/12/13 10:23:06;;;;;;;21.07;13.33;;;;;;;16.17;62.88;93980.53;5047510;28;20291;-47
2023/12/13 10:25:52;;;;;;;18.93;12.83;;;;;;;16.17;62.88;93971.00;5032830;28;20282;-47
2023/12/13 10:28:22;;;;;;;19.47;14.03;;;;;;;16.12;63.01;93957.88;5033302;28;20257;-47
2023/12/13 10:30:50;;;;;;;19.10;12.67;;;;;;;16.09;62.85;93957.47;5031824;28;20184;-47
2023/12/13 10:33:17;;;;;;;20.77;14.13;;;;;;;16.09;62.82;93947.94;5032176;28;20184;-47
2023/12/13 10:35:48;;;;;;;18.60;13.80;;;;;;;16.09;62.57;93953.09;5031113;28;20192;-47
2023/12/13 10:38:16;;;;;;;22.20;14.40;;;;;;;16.10;62.58;93946.16;5037497;28;20313;-46
2023/12/13 10:40:44;;;;;;;21.83;14.03;;;;;;;16.05;62.58;93949.31;5034506;28;20250;-50
2023/12/13 10:43:15;;;;;;;20.60;14.30;;;;;;;16.09;62.41;93947.94;5035137;28;20231;-49
2023/12/13 10:45:52;;;;;;;21.03;13.50;;;;;;;16.09;62.49;93949.72;5035520;28;20192;-47
2023/12/13 10:48:24;;;;;;;18.73;13.77;;;;;;;16.08;62.32;93942.97;5040326;28;20273;-46
2023/12/13 10:51:00;;;;;;;22.80;15.23;;;;;;;15.92;62.48;93931.97;5050697;28;20179;-52
2023/12/13 10:53:34;;;;;;;19.70;14.63;;;;;;;15.78;62.23;93876.16;5049490;28;20195;-47
2023/12/13 10:56:02;;;;;;;23.03;14.77;;;;;;;15.93;62.12;93922.44;5052137;28;20190;-48
2023/12/13 10:58:36;;;;;;;23.80;15.27;;;;;;;15.83;62.13;93911.69;5053203;28;20218;-46
2023/12/13 11:01:09;;;;;;;23.83;15.20;;;;;;;15.69;62.19;93913.38;5052226;28;20191;-47
2023/12/13 11:03:45;;;;;;;22.93;16.50;;;;;;;15.85;62.19;93938.88;5051587;28;20227;-46
2023/12/13 11:06:18;;;;;;;30.00;15.73;;;;;;;15.74;62.27;93922.13;5050337;28;20191;-46
2023/12/13 11:08:46;;;;;;;20.77;15.27;;;;;;;15.79;62.14;93906.09;5051069;28;20287;-48
2023/12/13 11:11:14;;;;;;;26.87;15.37;;;;;;;15.75;62.16;93925.50;5049868;28;20198;-47
2023/12/13 11:13:56;;;;;;;23.57;15.73;;;;;;;15.73;62.00;93925.69;5052246;28;20186;-47
2023/12/13 11:16:35;;;;;;;24.87;15.07;;;;;;;15.74;61.99;93911.03;5050249;28;20246;-53
2023/12/13 11:19:08;;;;;;;22.10;14.70;;;;;;;15.73;62.12;93901.72;5050445;28;20229;-46
2023/12/13 11:21:42;;;;;;;24.37;15.47;;;;;;;15.72;62.17;93913.00;5051487;28;20194;-48
2023/12/13 11:24:13;;;;;;;19.50;14.17;;;;;;;15.66;62.03;93901.66;5051076;28;20222;-48
2023/12/13 11:26:42;;;;;;;25.37;13.67;;;;;;;15.63;62.25;93914.91;5033666;28;20290;-46
2023/12/13 11:29:19;;;;;;;19.37;13.83;;;;;;;15.60;62.18;93907.53;5051434;28;20672;-48
2023/12/13 11:31:53;;;;;;;22.43;14.37;;;;;;;15.54;62.20;93911.66;5049769;28;20186;-47
2023/12/13 11:34:34;;;;;;;18.03;13.97;;;;;;;15.51;62.15;93919.78;5050637;28;20234;-47
2023/12/13 11:37:14;;;;;;;20.27;13.27;;;;;;;15.45;62.34;93904.25;5051352;28;20187;-48
2023/12/13 11:39:42;;;;;;;21.03;13.17;;;;;;;15.45;62.44;93911.97;5049583;28;20645;-48